Time;durP1;ratioP1;P1;durP2;ratioP2;P2;SDS_P1;SDS_P2;PMS_P1;PMS_P2;Temp;Humidity;BMP_temperature;BMP_pressure;BME280_temperature;BME280_humidity;BME280_pressure;Samples;Min_cycle;Max_cycle;Signal;HPM_P1;HPM_P2
2022/06/02 00:04:26;;;;;;;1.15;0.40;;;19.90;38.30;;;;;;2339001;54;21465;-74
2022/06/02 00:07:16;;;;;;;1.30;0.40;;;19.80;38.70;;;;;;2338008;53;20952;-76
2022/06/02 00:09:52;;;;;;;1.50;0.40;;;19.70;38.80;;;;;;2338702;54;20948;-78
2022/06/02 00:14:05;;;;;;;1.05;0.40;;;19.60;38.80;;;;;;2338298;54;20944;-73
2022/06/02 00:16:36;;;;;;;1.00;0.40;;;19.60;39.00;;;;;;2340615;54;20910;-74
2022/06/02 00:19:21;;;;;;;1.40;0.43;;;19.60;38.90;;;;;;2338564;53;20928;-74
2022/06/02 00:21:51;;;;;;;0.93;0.40;;;19.50;39.00;;;;;;2340222;53;21471;-73
2022/06/02 00:24:47;;;;;;;2.50;0.50;;;19.60;39.10;;;;;;2339185;54;20976;-74
2022/06/02 00:27:44;;;;;;;0.70;0.47;;;19.50;39.30;;;;;;2338923;53;20936;-76
2022/06/02 00:30:23;;;;;;;1.42;0.57;;;19.50;39.20;;;;;;2340159;53;20911;-74
2022/06/02 00:39:56;;;;;;;1.05;0.50;;;19.50;39.20;;;;;;2335268;53;21357;-74
2022/06/02 00:45:51;;;;;;;1.85;0.43;;;19.40;39.20;;;;;;2326926;53;20936;-76
2022/06/02 00:48:45;;;;;;;0.82;0.30;;;19.40;39.00;;;;;;2330181;54;20948;-73
2022/06/02 00:51:13;;;;;;;1.17;0.43;;;19.30;38.90;;;;;;2334427;54;21000;-74
2022/06/02 00:59:47;;;;;;;1.37;0.37;;;19.30;39.20;;;;;;2547139;53;20952;-76
2022/06/02 01:02:16;;;;;;;1.02;0.40;;;19.20;39.20;;;;;;2330369;54;20999;-75
2022/06/02 01:04:43;;;;;;;0.70;0.40;;;19.20;39.10;;;;;;2326201;54;21794;-74
2022/06/02 01:07:41;;;;;;;1.90;0.60;;;19.10;39.10;;;;;;2443945;53;21320;-74
2022/06/02 01:10:35;;;;;;;1.00;0.40;;;19.10;39.70;;;;;;2355865;53;20988;-74
2022/06/02 01:15:38;;;;;;;1.52;0.50;;;19.10;39.70;;;;;;2348008;53;21543;-75
2022/06/02 01:21:38;;;;;;;1.10;0.50;;;19.10;39.80;;;;;;2405910;53;21737;-74
2022/06/02 01:24:31;;;;;;;0.88;0.40;;;19.00;39.60;;;;;;2460151;53;20916;-74
2022/06/02 01:27:25;;;;;;;1.10;0.50;;;19.00;39.50;;;;;;2414330;53;20998;-76
2022/06/02 01:30:17;;;;;;;0.88;0.43;;;19.00;39.60;;;;;;2341114;53;20964;-77
2022/06/02 01:32:54;;;;;;;2.10;0.60;;;19.00;39.80;;;;;;2409226;53;21003;-74
2022/06/02 01:37:09;;;;;;;0.80;0.50;;;18.90;39.80;;;;;;2338393;53;20932;-73
2022/06/02 01:40:19;;;;;;;0.73;0.30;;;18.90;40.80;;;;;;2339223;53;21724;-74
2022/06/02 01:46:24;;;;;;;1.08;0.50;;;18.90;40.10;;;;;;2337156;53;21016;-74
2022/06/02 01:49:16;;;;;;;1.60;0.60;;;18.90;39.90;;;;;;2340951;53;21452;-74
2022/06/02 01:55:34;;;;;;;2.12;0.60;;;18.90;40.00;;;;;;2340025;53;20923;-74
2022/06/02 02:01:21;;;;;;;0.82;0.40;;;18.80;39.90;;;;;;2338806;54;21037;-76
2022/06/02 02:05:28;;;;;;;1.30;0.45;;;18.80;39.90;;;;;;2340705;54;21000;-77
2022/06/02 02:14:03;;;;;;;0.85;0.40;;;18.80;39.90;;;;;;2342462;53;20968;-75
2022/06/02 02:18:09;;;;;;;1.02;0.43;;;18.80;40.00;;;;;;2338466;54;21755;-74
2022/06/02 02:21:00;;;;;;;1.52;0.57;;;18.80;40.00;;;;;;2562100;53;20952;-73
2022/06/02 02:23:56;;;;;;;2.30;0.50;;;18.70;40.00;;;;;;2339978;54;20968;-75
2022/06/02 02:26:40;;;;;;;1.27;0.50;;;18.70;40.10;;;;;;2344172;53;20955;-73
2022/06/02 02:32:50;;;;;;;1.55;0.70;;;18.70;40.30;;;;;;2323777;54;20960;-74
2022/06/02 02:35:34;;;;;;;0.90;0.40;;;18.70;40.40;;;;;;2368768;53;21549;-74
2022/06/02 02:38:20;;;;;;;1.33;0.57;;;18.60;40.10;;;;;;2447090;53;21023;-73
2022/06/02 02:40:52;;;;;;;1.23;0.50;;;18.60;40.80;;;;;;2369350;53;21600;-74
2022/06/02 02:44:13;;;;;;;1.40;0.50;;;18.60;40.60;;;;;;2339399;54;21021;-74
2022/06/02 02:46:57;;;;;;;1.17;0.47;;;18.60;40.80;;;;;;2584097;53;22059;-77
2022/06/02 02:49:34;;;;;;;1.67;0.60;;;18.60;41.00;;;;;;2336985;54;21015;-75
2022/06/02 02:52:10;;;;;;;1.25;0.70;;;18.60;41.00;;;;;;2342276;53;20891;-75
2022/06/02 02:57:15;;;;;;;0.98;0.50;;;18.60;40.90;;;;;;2338555;54;21574;-73
2022/06/02 03:00:28;;;;;;;1.27;0.40;;;18.60;41.00;;;;;;2582495;53;20964;-77
2022/06/02 03:03:00;;;;;;;;;;;18.60;41.20;;;;;;2340971;54;20940;-74
2022/06/02 03:07:01;;;;;;;1.35;0.40;;;18.60;41.00;;;;;;2337209;54;20691;-73
2022/06/02 03:09:54;;;;;;;1.48;0.47;;;18.60;40.80;;;;;;2383964;53;21014;-73
2022/06/02 03:13:58;;;;;;;1.02;0.40;;;18.60;41.00;;;;;;2334677;54;21095;-75
2022/06/02 03:16:24;;;;;;;1.92;0.50;;;18.60;41.10;;;;;;2334809;54;21020;-74
2022/06/02 03:21:40;;;;;;;2.90;0.62;;;18.50;40.70;;;;;;2345503;53;21757;-73
2022/06/02 03:24:11;;;;;;;;;;;18.50;41.00;;;;;;2590315;53;21028;-74
2022/06/02 03:27:04;;;;;;;1.25;0.60;;;18.50;40.90;;;;;;2336670;54;20075;-74
2022/06/02 03:32:18;;;;;;;1.67;0.47;;;18.40;41.10;;;;;;2344736;53;20923;-74
2022/06/02 03:35:08;;;;;;;3.28;0.50;;;18.40;41.10;;;;;;2338202;53;20944;-73
2022/06/02 03:38:16;;;;;;;1.17;0.50;;;18.30;41.00;;;;;;2344275;53;20992;-75
2022/06/02 03:41:05;;;;;;;1.45;0.70;;;18.30;41.50;;;;;;2323489;54;21041;-73
2022/06/02 03:44:11;;;;;;;1.48;0.55;;;18.30;41.50;;;;;;2339643;53;21541;-76
2022/06/02 03:47:16;;;;;;;1.20;0.50;;;18.30;41.30;;;;;;2343136;53;20982;-77
2022/06/02 03:57:16;;;;;;;1.92;0.50;;;18.20;41.50;;;;;;2551561;53;20943;-76
2022/06/02 04:00:07;;;;;;;0.88;0.40;;;18.20;41.60;;;;;;2378118;53;20955;-73
2022/06/02 04:02:51;;;;;;;0.57;0.40;;;18.10;41.00;;;;;;2342048;53;21511;-77
2022/06/02 04:09:07;;;;;;;1.33;0.47;;;18.10;41.40;;;;;;2340719;53;21001;-73
2022/06/02 04:15:22;;;;;;;2.62;0.65;;;17.90;41.50;;;;;;2343156;53;20983;-73
2022/06/02 04:18:11;;;;;;;1.25;0.55;;;17.80;41.60;;;;;;2350291;53;20934;-75
2022/06/02 04:21:33;;;;;;;1.65;0.60;;;17.80;41.60;;;;;;2342007;53;21647;-78
2022/06/02 04:25:40;;;;;;;1.65;0.73;;;17.80;41.70;;;;;;2460319;54;20983;-73
2022/06/02 04:28:43;;;;;;;1.40;0.52;;;17.70;41.80;;;;;;2380448;53;21579;-73
2022/06/02 04:32:52;;;;;;;1.85;0.60;;;17.70;41.90;;;;;;2340324;53;20918;-75
2022/06/02 04:37:29;;;;;;;1.70;0.65;;;17.70;41.90;;;;;;2442392;53;21052;-75
2022/06/02 04:41:53;;;;;;;1.37;0.60;;;17.70;42.00;;;;;;2329218;54;20939;-76
2022/06/02 04:44:40;;;;;;;1.23;0.52;;;17.60;42.10;;;;;;2568442;53;21000;-76
2022/06/02 04:47:30;;;;;;;1.17;0.50;;;17.60;42.10;;;;;;2570034;53;20912;-75
2022/06/02 04:53:09;;;;;;;;;;;17.50;42.10;;;;;;2331556;54;20932;-75
2022/06/02 04:55:49;;;;;;;;;;;17.50;42.10;;;;;;2335203;54;20170;-73
2022/06/02 05:01:48;;;;;;;1.33;0.40;;;17.50;42.00;;;;;;2332993;54;20075;-73
2022/06/02 05:06:53;;;;;;;0.85;0.50;;;17.50;41.90;;;;;;2332511;54;20955;-73
2022/06/02 05:09:40;;;;;;;1.10;0.50;;;17.50;42.50;;;;;;2330056;54;21580;-73
2022/06/02 05:19:04;;;;;;;1.05;0.50;;;17.60;42.70;;;;;;2332754;54;20992;-74
2022/06/02 05:23:17;;;;;;;1.58;0.60;;;17.60;42.70;;;;;;2436527;53;20948;-73
2022/06/02 05:26:52;;;;;;;1.77;0.65;;;17.70;43.10;;;;;;2333412;53;20892;-73
2022/06/02 05:32:44;;;;;;;1.60;0.80;;;17.70;43.10;;;;;;2337430;53;20923;-75
2022/06/02 05:35:23;;;;;;;2.55;0.80;;;17.80;43.30;;;;;;2370266;53;21783;-74
2022/06/02 05:38:16;;;;;;;2.67;0.73;;;17.80;43.10;;;;;;2315528;54;20952;-74
2022/06/02 05:40:54;;;;;;;2.35;0.80;;;17.90;43.70;;;;;;2332890;54;20936;-73
2022/06/02 05:50:18;;;;;;;1.67;0.75;;;17.90;43.50;;;;;;2335394;54;21770;-73
2022/06/02 05:53:13;;;;;;;1.02;0.50;;;18.10;43.40;;;;;;2517949;53;20971;-74
2022/06/02 06:01:49;;;;;;;1.52;0.70;;;18.20;43.50;;;;;;2331950;54;21075;-74
2022/06/02 06:04:52;;;;;;;1.23;0.57;;;18.30;43.40;;;;;;2331183;54;21051;-75
2022/06/02 06:08:15;;;;;;;2.25;0.82;;;18.30;43.40;;;;;;2314403;54;20983;-77
2022/06/02 06:11:13;;;;;;;2.40;0.98;;;18.40;43.70;;;;;;2400975;53;20948;-74
2022/06/02 06:13:50;;;;;;;1.90;0.75;;;18.40;43.60;;;;;;2328434;54;20944;-75
2022/06/02 06:16:25;;;;;;;1.62;0.77;;;18.50;43.70;;;;;;2336682;53;21773;-74
2022/06/02 06:19:12;;;;;;;1.92;0.90;;;18.50;43.60;;;;;;2316028;54;20976;-75
2022/06/02 06:25:16;;;;;;;1.70;0.80;;;18.50;43.90;;;;;;2406274;53;21895;-76
2022/06/02 06:28:06;;;;;;;2.33;0.85;;;18.60;43.70;;;;;;2347171;53;21014;-74
2022/06/02 06:31:30;;;;;;;2.65;1.00;;;18.70;43.80;;;;;;2331016;53;20968;-74
2022/06/02 06:34:34;;;;;;;2.50;0.85;;;18.80;44.20;;;;;;2576446;53;21020;-75
2022/06/02 06:38:08;;;;;;;1.75;0.70;;;18.90;44.20;;;;;;2329194;54;20983;-74
2022/06/02 06:40:57;;;;;;;1.77;0.73;;;19.00;44.50;;;;;;2331050;53;21020;-77
2022/06/02 06:43:49;;;;;;;2.12;0.73;;;19.00;44.00;;;;;;2316900;54;20963;-74
2022/06/02 06:47:00;;;;;;;4.15;1.08;;;19.10;44.30;;;;;;2333991;53;21023;-75
2022/06/02 06:50:07;;;;;;;1.90;0.90;;;19.20;44.50;;;;;;2335244;54;20940;-75
2022/06/02 06:52:44;;;;;;;1.98;0.73;;;19.30;44.60;;;;;;2330479;54;20964;-74
2022/06/02 06:55:40;;;;;;;1.98;0.90;;;19.40;44.40;;;;;;2326340;54;21067;-74
2022/06/02 07:01:14;;;;;;;2.85;1.00;;;19.50;44.60;;;;;;2385671;53;20920;-76
2022/06/02 07:03:57;;;;;;;2.15;0.80;;;19.60;44.40;;;;;;2328394;53;21555;-73
2022/06/02 07:09:12;;;;;;;3.50;1.10;;;19.80;44.10;;;;;;2314115;54;21019;-74
2022/06/02 07:14:39;;;;;;;1.83;0.80;;;19.80;44.50;;;;;;2327426;54;20979;-75
2022/06/02 07:18:40;;;;;;;1.83;0.60;;;20.00;44.20;;;;;;2329404;53;20956;-74
2022/06/02 07:21:38;;;;;;;2.40;0.70;;;20.10;44.00;;;;;;2326287;54;20964;-74
2022/06/02 07:25:40;;;;;;;1.77;0.75;;;20.20;44.10;;;;;;2328127;53;20944;-74
2022/06/02 07:28:28;;;;;;;2.40;0.95;;;20.30;44.00;;;;;;2308981;53;22478;-75
2022/06/02 07:31:13;;;;;;;2.30;0.93;;;20.40;44.30;;;;;;2297756;53;21417;-74
2022/06/02 07:34:03;;;;;;;1.77;0.80;;;20.50;44.10;;;;;;2310105;53;22302;-74
2022/06/02 07:36:57;;;;;;;1.70;0.80;;;20.60;44.20;;;;;;2298573;53;20951;-74
2022/06/02 07:39:39;;;;;;;3.15;0.85;;;20.60;44.00;;;;;;2335912;53;21047;-74
2022/06/02 07:43:28;;;;;;;3.20;1.00;;;20.70;44.30;;;;;;2302475;54;21461;-72
2022/06/02 07:47:48;;;;;;;1.90;0.80;;;20.80;44.20;;;;;;2363604;53;20948;-74
2022/06/02 07:50:25;;;;;;;4.07;0.80;;;21.00;44.20;;;;;;2310667;54;20976;-72
2022/06/02 07:56:12;;;;;;;1.10;0.60;;;21.10;44.00;;;;;;2396291;53;21024;-74
2022/06/02 08:00:24;;;;;;;2.22;0.70;;;21.20;43.90;;;;;;2313726;54;21250;-72
2022/06/02 08:06:02;;;;;;;4.20;0.80;;;21.30;43.70;;;;;;2326417;53;20952;-72
2022/06/02 08:08:49;;;;;;;1.75;0.68;;;21.50;43.50;;;;;;2383182;54;21608;-74
2022/06/02 08:13:25;;;;;;;2.58;0.60;;;21.60;43.40;;;;;;2445926;53;21737;-76
2022/06/02 08:16:57;;;;;;;2.35;0.57;;;21.70;43.60;;;;;;2390443;53;20956;-76
2022/06/02 08:21:15;;;;;;;1.45;0.57;;;21.80;43.20;;;;;;2327250;53;21238;-73
2022/06/02 08:24:07;;;;;;;3.45;0.60;;;21.90;43.20;;;;;;2542649;53;20926;-73
2022/06/02 08:29:56;;;;;;;1.73;0.65;;;22.00;43.10;;;;;;2328165;54;21009;-74
2022/06/02 08:33:50;;;;;;;1.10;0.50;;;22.10;43.10;;;;;;2327917;54;21385;-75
2022/06/02 08:36:23;;;;;;;;;;;22.20;42.90;;;;;;2376454;53;21700;-73
2022/06/02 08:42:16;;;;;;;1.00;0.50;;;22.30;43.00;;;;;;2330650;53;20604;-74
2022/06/02 08:47:25;;;;;;;1.62;0.70;;;22.50;42.80;;;;;;2332500;54;20921;-73
2022/06/02 08:50:16;;;;;;;1.45;0.57;;;22.60;42.80;;;;;;2332772;53;21024;-72
2022/06/02 08:53:14;;;;;;;1.33;0.70;;;22.70;42.60;;;;;;2335216;53;20888;-71
2022/06/02 08:56:25;;;;;;;1.50;0.60;;;22.80;42.50;;;;;;2336822;53;21362;-71
2022/06/02 09:01:47;;;;;;;3.28;0.75;;;22.90;42.60;;;;;;2378058;53;21016;-71
2022/06/02 09:04:51;;;;;;;1.65;0.60;;;23.10;42.70;;;;;;2331322;54;20996;-73
2022/06/02 09:11:56;;;;;;;1.35;0.60;;;23.10;42.40;;;;;;2317745;54;21532;-73
2022/06/02 09:14:49;;;;;;;1.75;0.85;;;23.30;42.50;;;;;;2332108;54;21632;-74
2022/06/02 09:18:49;;;;;;;;;;;23.50;42.40;;;;;;2333535;54;21040;-75
2022/06/02 09:25:22;;;;;;;2.30;0.50;;;23.60;42.40;;;;;;2368836;53;20147;-76
2022/06/02 09:28:21;;;;;;;1.20;0.52;;;23.80;42.40;;;;;;2329883;54;20960;-71
2022/06/02 09:39:28;;;;;;;1.67;0.60;;;23.90;41.80;;;;;;2328362;54;22539;-71
2022/06/02 09:45:11;;;;;;;1.70;0.80;;;24.10;42.20;;;;;;2322501;54;21678;-71
2022/06/02 09:50:57;;;;;;;2.17;0.80;;;24.40;41.80;;;;;;2321423;53;20971;-70
2022/06/02 09:53:42;;;;;;;1.17;0.52;;;24.60;41.60;;;;;;2304224;54;21547;-71
2022/06/02 09:56:40;;;;;;;3.08;0.60;;;24.70;41.00;;;;;;2319270;54;21012;-73
2022/06/02 10:01:51;;;;;;;2.00;0.75;;;24.70;41.00;;;;;;2394287;53;21051;-72
2022/06/02 10:05:33;;;;;;;2.90;0.52;;;24.80;41.10;;;;;;2427634;53;21356;-73
2022/06/02 10:10:09;;;;;;;2.65;0.52;;;24.90;40.80;;;;;;2293116;54;21004;-72
2022/06/02 10:15:27;;;;;;;0.98;0.50;;;25.00;40.80;;;;;;2293680;54;20948;-71
2022/06/02 10:27:54;;;;;;;0.88;0.40;;;25.10;40.60;;;;;;2302924;54;21004;-70
2022/06/02 10:32:08;;;;;;;1.15;0.40;;;25.50;40.60;;;;;;2299142;53;21285;-70
2022/06/02 10:37:30;;;;;;;1.25;0.50;;;25.60;40.10;;;;;;2304396;54;21004;-68
2022/06/02 10:40:18;;;;;;;2.97;0.62;;;25.70;39.80;;;;;;2568568;53;21068;-70
2022/06/02 10:43:37;;;;;;;1.85;0.60;;;25.80;39.60;;;;;;2325598;54;21051;-69
2022/06/02 10:46:41;;;;;;;2.10;0.65;;;25.90;39.70;;;;;;2408879;53;21433;-70
2022/06/02 10:49:31;;;;;;;1.62;0.50;;;26.00;39.20;;;;;;2323688;53;22475;-69
2022/06/02 10:54:59;;;;;;;1.73;0.60;;;26.00;38.90;;;;;;2320142;53;22292;-68
2022/06/02 11:00:42;;;;;;;1.75;0.60;;;26.10;38.90;;;;;;2323483;53;20931;-69
2022/06/02 11:06:22;;;;;;;1.85;0.57;;;26.20;38.80;;;;;;2308796;53;21572;-69
2022/06/02 11:12:01;;;;;;;0.98;0.43;;;26.40;39.00;;;;;;2329387;53;22151;-69
2022/06/02 11:19:51;;;;;;;0.80;0.40;;;26.50;38.90;;;;;;2267420;53;1467046;-69
2022/06/02 11:22:51;;;;;;;1.55;0.50;;;26.70;38.80;;;;;;2304770;54;22413;-68
2022/06/02 11:25:53;;;;;;;3.90;0.65;;;26.70;37.90;;;;;;2305976;53;21343;-68
2022/06/02 11:33:24;;;;;;;2.42;0.55;;;26.80;38.00;;;;;;2297624;53;20944;-69
2022/06/02 11:41:14;;;;;;;1.25;0.60;;;26.80;37.90;;;;;;2362512;53;21029;-69
2022/06/02 11:44:05;;;;;;;1.58;0.57;;;27.00;37.80;;;;;;2307723;54;20964;-70
2022/06/02 11:48:00;;;;;;;1.48;0.68;;;27.10;37.50;;;;;;2398954;53;21015;-70
2022/06/02 11:51:12;;;;;;;3.67;0.57;;;27.20;37.40;;;;;;2319914;54;20921;-70
2022/06/02 11:54:05;;;;;;;1.77;0.65;;;27.30;36.90;;;;;;2325106;53;22848;-68
2022/06/02 12:00:00;;;;;;;1.42;0.52;;;27.30;36.80;;;;;;2318525;53;21076;-68
2022/06/02 12:05:38;;;;;;;2.17;0.70;;;27.30;36.50;;;;;;2329388;53;20967;-68
2022/06/02 12:08:41;;;;;;;1.75;0.52;;;27.50;36.30;;;;;;2326813;53;21251;-69
2022/06/02 12:11:25;;;;;;;1.35;0.50;;;27.50;36.30;;;;;;2330466;53;22079;-68
2022/06/02 12:13:59;;;;;;;2.65;0.60;;;27.50;36.00;;;;;;2554171;53;21012;-69
2022/06/02 12:16:42;;;;;;;3.75;0.55;;;27.60;36.00;;;;;;2318808;53;20964;-69
2022/06/02 12:22:48;;;;;;;1.20;0.50;;;27.60;35.70;;;;;;2321560;54;21882;-73
2022/06/02 12:25:37;;;;;;;;;;;27.50;35.70;;;;;;2433539;53;20940;-69
2022/06/02 12:28:41;;;;;;;2.58;0.55;;;27.70;36.30;;;;;;2325388;54;20312;-70
2022/06/02 12:32:01;;;;;;;2.30;0.70;;;27.70;35.40;;;;;;2327254;53;20964;-70
2022/06/02 12:35:37;;;;;;;1.15;0.50;;;27.60;35.00;;;;;;2461405;53;22055;-69
2022/06/02 12:38:23;;;;;;;3.08;0.68;;;27.60;34.80;;;;;;2328876;53;20967;-71
2022/06/02 12:41:19;;;;;;;2.30;0.70;;;27.50;34.80;;;;;;2323257;54;20924;-70
2022/06/02 12:47:39;;;;;;;2.15;0.60;;;27.50;34.60;;;;;;2338654;53;20972;-71
2022/06/02 12:50:33;;;;;;;1.37;0.50;;;27.40;35.10;;;;;;2339113;53;21444;-70
2022/06/02 12:53:14;;;;;;;0.98;0.40;;;27.30;34.70;;;;;;2343819;53;21074;-70
2022/06/02 12:56:01;;;;;;;1.87;0.70;;;27.30;34.90;;;;;;2586012;53;20943;-73
2022/06/02 12:59:00;;;;;;;2.05;0.50;;;27.20;35.20;;;;;;2445225;53;20971;-70
2022/06/02 13:02:03;;;;;;;3.15;0.57;;;27.20;34.70;;;;;;2343839;53;20951;-70
2022/06/02 13:05:06;;;;;;;2.03;0.60;;;27.10;34.50;;;;;;2339190;53;21679;-70
2022/06/02 13:11:02;;;;;;;2.72;0.80;;;27.10;34.60;;;;;;2351385;53;21056;-70
2022/06/02 13:20:27;;;;;;;0.60;0.40;;;27.00;34.50;;;;;;2400810;53;21444;-71
2022/06/02 13:24:38;;;;;;;1.25;0.57;;;26.80;35.00;;;;;;2577356;53;21087;-71
2022/06/02 13:30:48;;;;;;;0.82;0.43;;;26.70;34.90;;;;;;2402781;53;21448;-71
2022/06/02 13:33:48;;;;;;;2.42;0.50;;;26.50;34.90;;;;;;2322979;54;20999;-72
2022/06/02 13:38:24;;;;;;;1.75;0.43;;;26.40;35.00;;;;;;2320792;54;20960;-73
2022/06/02 13:41:14;;;;;;;1.08;0.40;;;26.30;35.20;;;;;;2321356;53;21038;-70
2022/06/02 13:44:02;;;;;;;3.65;0.60;;;26.30;35.40;;;;;;2316227;54;20943;-71
2022/06/02 13:48:21;;;;;;;0.80;0.40;;;26.30;35.60;;;;;;2309128;54;20948;-71
2022/06/02 13:57:30;;;;;;;1.15;0.43;;;26.30;35.80;;;;;;2314135;53;20936;-72
2022/06/02 14:06:26;;;;;;;2.28;0.50;;;26.30;36.10;;;;;;2305687;53;21114;-72
2022/06/02 14:11:56;;;;;;;2.30;0.50;;;26.40;36.30;;;;;;2313029;54;21868;-71
2022/06/02 14:16:06;;;;;;;1.85;0.50;;;26.40;36.60;;;;;;2330045;53;20995;-71
2022/06/02 14:19:02;;;;;;;2.08;0.75;;;26.60;37.70;;;;;;2318831;53;21044;-72
2022/06/02 14:22:01;;;;;;;1.30;0.60;;;26.70;37.90;;;;;;2347717;53;20952;-72
2022/06/02 14:24:43;;;;;;;2.30;0.70;;;26.70;36.80;;;;;;2344328;53;21020;-71
2022/06/02 14:27:26;;;;;;;1.48;0.57;;;26.80;36.60;;;;;;2327297;53;20899;-71
2022/06/02 14:29:56;;;;;;;;;;;26.90;36.40;;;;;;2320808;54;21401;-71
2022/06/02 14:33:45;;;;;;;1.70;0.60;;;27.00;36.60;;;;;;2297500;54;20135;-71
2022/06/02 14:36:25;;;;;;;1.42;0.57;;;27.00;36.50;;;;;;2346834;53;21405;-72
2022/06/02 14:39:06;;;;;;;1.70;0.60;;;27.10;36.40;;;;;;2313823;54;22777;-72
2022/06/02 14:41:40;;;;;;;2.37;0.60;;;27.20;36.40;;;;;;2408320;53;21032;-71
2022/06/02 14:47:54;;;;;;;1.65;0.60;;;27.20;36.60;;;;;;2316528;54;20940;-71
2022/06/02 14:50:40;;;;;;;3.28;0.60;;;27.40;36.80;;;;;;2316622;53;21004;-71
2022/06/02 14:54:44;;;;;;;1.02;0.45;;;27.50;36.40;;;;;;2315084;54;21741;-72
2022/06/02 15:02:34;;;;;;;1.30;0.50;;;27.50;36.20;;;;;;2455900;53;21059;-71
2022/06/02 15:05:34;;;;;;;1.50;0.50;;;27.70;36.30;;;;;;2323886;54;20964;-71
2022/06/02 15:09:04;;;;;;;1.48;0.55;;;27.70;35.70;;;;;;2319818;54;21502;-73
2022/06/02 15:12:01;;;;;;;1.48;0.60;;;27.70;35.80;;;;;;2319468;53;22501;-72
2022/06/02 15:14:53;;;;;;;1.73;0.70;;;27.80;36.30;;;;;;2332030;53;20951;-71
2022/06/02 15:17:51;;;;;;;1.70;0.70;;;27.90;36.10;;;;;;2320423;53;21752;-71
2022/06/02 15:21:14;;;;;;;1.62;0.60;;;27.90;35.90;;;;;;2448329;53;21428;-72
2022/06/02 15:24:04;;;;;;;0.93;0.62;;;27.90;36.00;;;;;;2412811;53;20956;-72
2022/06/02 15:29:26;;;;;;;1.65;0.70;;;28.00;35.80;;;;;;2319620;54;21016;-72
2022/06/02 15:33:01;;;;;;;2.30;0.60;;;28.10;35.90;;;;;;2313720;54;20910;-75
2022/06/02 15:36:23;;;;;;;1.60;0.47;;;28.10;35.90;;;;;;2324211;53;20919;-72
2022/06/02 15:42:35;;;;;;;1.20;0.50;;;28.20;36.30;;;;;;2323575;53;20972;-72
2022/06/02 15:47:12;;;;;;;1.33;0.50;;;28.20;36.30;;;;;;2314567;53;22036;-72
2022/06/02 15:52:45;;;;;;;1.40;0.57;;;28.30;36.30;;;;;;2312404;54;20944;-72
2022/06/02 15:56:54;;;;;;;1.80;0.50;;;28.30;36.30;;;;;;2316817;53;22630;-70
2022/06/02 16:00:02;;;;;;;2.80;0.52;;;28.40;36.30;;;;;;2318786;54;20972;-71
2022/06/02 16:06:19;;;;;;;2.22;0.80;;;28.50;37.70;;;;;;2431336;53;21075;-71
2022/06/02 16:15:47;;;;;;;1.30;0.60;;;28.50;37.60;;;;;;2316066;54;21693;-70
2022/06/02 16:19:30;;;;;;;3.60;0.55;;;28.70;37.70;;;;;;2331459;53;20986;-72
2022/06/02 16:27:53;;;;;;;1.50;0.60;;;28.70;37.50;;;;;;2327699;54;21011;-70
2022/06/02 16:30:33;;;;;;;1.95;0.70;;;28.70;37.90;;;;;;2380467;53;21355;-71
2022/06/02 16:36:16;;;;;;;1.73;0.70;;;28.70;37.60;;;;;;2322932;54;20984;-73
2022/06/02 16:40:39;;;;;;;1.50;0.60;;;28.70;37.80;;;;;;2315526;54;21020;-72
2022/06/02 16:46:01;;;;;;;1.08;0.55;;;28.80;38.00;;;;;;2326269;53;20962;-71
2022/06/02 16:49:29;;;;;;;1.20;0.60;;;28.80;37.90;;;;;;2335629;53;21016;-71
2022/06/02 16:52:36;;;;;;;1.80;0.80;;;28.90;37.70;;;;;;2323124;54;21075;-71
2022/06/02 17:03:40;;;;;;;1.70;0.80;;;28.90;37.90;;;;;;2329092;53;20959;-72
2022/06/02 17:08:13;;;;;;;0.98;0.47;;;28.90;37.60;;;;;;2320635;53;20960;-71
2022/06/02 17:12:22;;;;;;;1.77;0.80;;;29.00;37.70;;;;;;2328530;53;20946;-71
2022/06/02 17:15:27;;;;;;;1.80;0.88;;;29.00;37.90;;;;;;2341955;53;20936;-71
2022/06/02 17:27:19;;;;;;;1.85;0.77;;;29.00;38.00;;;;;;2458174;53;20956;-70
2022/06/02 17:38:12;;;;;;;2.20;0.70;;;29.00;38.10;;;;;;2327482;53;21418;-71
2022/06/02 17:43:52;;;;;;;1.40;0.57;;;29.00;38.10;;;;;;2323090;53;20959;-70
2022/06/02 17:48:29;;;;;;;0.98;0.40;;;29.20;38.60;;;;;;2561223;53;21500;-69
2022/06/02 17:51:23;;;;;;;1.52;0.68;;;29.30;38.80;;;;;;2362447;53;20919;-71
2022/06/02 17:55:30;;;;;;;1.42;0.60;;;29.50;38.90;;;;;;2309094;53;21452;-71
2022/06/02 17:58:54;;;;;;;2.20;0.70;;;29.80;39.10;;;;;;2289576;54;21460;-72
2022/06/02 18:02:00;;;;;;;2.00;0.90;;;30.00;38.60;;;;;;2453363;53;21003;-72
2022/06/02 18:08:11;;;;;;;1.52;0.60;;;30.30;38.50;;;;;;2361740;53;21011;-72
2022/06/02 18:11:01;;;;;;;1.27;0.62;;;30.70;38.10;;;;;;2339110;54;20995;-75
2022/06/02 18:15:37;;;;;;;1.75;0.60;;;31.20;37.80;;;;;;2339234;54;20936;-73
2022/06/02 18:22:20;;;;;;;1.30;0.70;;;31.50;37.30;;;;;;2339391;54;21532;-71
2022/06/02 18:25:10;;;;;;;1.40;0.50;;;31.80;36.40;;;;;;2338998;53;20908;-74
2022/06/02 18:28:25;;;;;;;1.62;0.52;;;31.90;35.90;;;;;;2338749;53;20948;-72
2022/06/02 18:33:04;;;;;;;1.17;0.50;;;31.90;35.80;;;;;;2351531;53;20910;-71
2022/06/02 18:36:41;;;;;;;1.50;0.50;;;31.90;35.40;;;;;;2344074;53;20962;-71
2022/06/02 18:42:33;;;;;;;2.53;0.77;;;31.80;35.50;;;;;;2344456;53;21534;-71
2022/06/02 18:45:59;;;;;;;1.23;0.60;;;31.60;35.50;;;;;;2332559;54;20964;-73
2022/06/02 18:49:26;;;;;;;1.05;0.50;;;31.50;35.30;;;;;;2329679;53;21008;-71
2022/06/02 18:52:29;;;;;;;1.40;0.70;;;31.30;34.80;;;;;;2329078;53;21640;-72
2022/06/02 18:58:13;;;;;;;1.37;0.52;;;31.10;34.90;;;;;;2325388;53;20978;-72
2022/06/02 19:00:56;;;;;;;1.58;0.62;;;30.80;35.10;;;;;;2317025;54;20956;-70
2022/06/02 19:13:50;;;;;;;1.10;0.50;;;30.20;35.30;;;;;;2297296;53;20999;-72
2022/06/02 19:18:15;;;;;;;1.62;0.60;;;30.00;35.30;;;;;;2408524;53;20971;-71
2022/06/02 19:24:01;;;;;;;1.02;0.52;;;29.70;35.50;;;;;;2298156;54;20991;-72
2022/06/02 19:28:10;;;;;;;1.60;0.60;;;29.50;35.50;;;;;;2294291;54;21834;-72
2022/06/02 19:31:50;;;;;;;1.33;0.52;;;29.20;35.70;;;;;;2302416;53;20951;-71
2022/06/02 19:34:57;;;;;;;1.62;0.70;;;28.90;35.80;;;;;;2310048;53;21023;-73
2022/06/02 19:37:45;;;;;;;2.20;0.68;;;28.70;35.80;;;;;;2313578;54;21421;-74
2022/06/02 19:40:51;;;;;;;1.90;0.70;;;28.50;35.90;;;;;;2311519;54;21481;-73
2022/06/02 19:44:22;;;;;;;1.30;0.60;;;28.30;36.00;;;;;;2318629;53;21034;-75
2022/06/02 19:47:39;;;;;;;1.52;0.65;;;28.10;36.10;;;;;;2308467;53;22589;-70
2022/06/02 19:50:38;;;;;;;1.92;0.93;;;27.80;36.30;;;;;;2408163;53;20960;-72
2022/06/02 19:53:20;;;;;;;1.20;0.57;;;27.70;36.50;;;;;;2317319;53;20928;-70
2022/06/02 19:59:29;;;;;;;1.85;0.70;;;27.50;36.60;;;;;;2386728;53;22166;-72
2022/06/02 20:02:30;;;;;;;2.40;0.70;;;27.30;36.80;;;;;;2384786;53;21103;-74
2022/06/02 20:05:21;;;;;;;1.75;0.65;;;27.00;36.90;;;;;;2550579;53;20980;-71
2022/06/02 20:08:12;;;;;;;1.48;0.77;;;26.80;37.20;;;;;;2337611;53;21546;-72
2022/06/02 20:13:35;;;;;;;1.37;0.70;;;26.70;37.30;;;;;;2319107;54;20940;-71
2022/06/02 20:16:11;;;;;;;2.05;0.75;;;26.50;37.50;;;;;;2341006;54;20948;-73
2022/06/02 20:18:52;;;;;;;1.52;0.70;;;26.30;37.50;;;;;;2340268;54;20995;-72
2022/06/02 20:21:28;;;;;;;2.37;0.75;;;26.20;37.80;;;;;;2340232;54;21094;-71
2022/06/02 20:27:08;;;;;;;1.48;0.70;;;26.00;38.00;;;;;;2346542;53;20971;-72
2022/06/02 20:30:46;;;;;;;1.52;0.68;;;25.80;38.10;;;;;;2338455;54;20992;-71
2022/06/02 20:33:43;;;;;;;1.30;0.68;;;25.70;38.30;;;;;;2339239;54;21007;-71
2022/06/02 20:36:32;;;;;;;2.03;0.90;;;25.60;38.70;;;;;;2323294;54;21004;-71
2022/06/02 20:46:05;;;;;;;1.77;0.70;;;25.40;39.00;;;;;;2585049;53;20940;-70
2022/06/02 20:48:39;;;;;;;1.12;0.45;;;25.40;39.20;;;;;;2341313;54;20940;-71
2022/06/02 20:51:08;;;;;;;1.65;0.77;;;25.10;39.00;;;;;;2341235;54;21027;-70
2022/06/02 20:53:39;;;;;;;1.90;0.90;;;25.00;39.20;;;;;;2586555;53;21019;-70
2022/06/02 20:56:27;;;;;;;1.80;0.90;;;24.90;39.40;;;;;;2347954;53;21749;-72
2022/06/02 20:59:17;;;;;;;1.92;0.80;;;24.80;39.50;;;;;;2342636;53;20932;-71
2022/06/02 21:01:52;;;;;;;1.70;0.73;;;24.80;40.00;;;;;;2586062;53;20983;-70
2022/06/02 21:04:35;;;;;;;2.30;0.95;;;24.70;40.00;;;;;;2347760;53;20951;-70
2022/06/02 21:07:26;;;;;;;2.22;1.02;;;24.60;40.20;;;;;;2341351;54;20955;-70
2022/06/02 21:10:01;;;;;;;2.03;1.10;;;24.50;40.40;;;;;;2341112;54;20964;-71
2022/06/02 21:12:58;;;;;;;2.30;0.93;;;24.40;40.10;;;;;;2341135;54;20992;-70
2022/06/02 21:17:12;;;;;;;2.22;1.00;;;24.40;40.40;;;;;;2338025;53;20976;-71
2022/06/02 21:19:53;;;;;;;1.75;0.70;;;24.30;40.70;;;;;;2449567;53;20976;-73
2022/06/02 21:22:49;;;;;;;1.92;0.90;;;24.20;40.70;;;;;;2342428;53;20941;-73
2022/06/02 21:25:25;;;;;;;2.42;0.90;;;24.10;41.00;;;;;;2340594;53;20956;-72
2022/06/02 21:28:00;;;;;;;2.20;1.05;;;24.10;41.00;;;;;;2378686;53;20948;-72
2022/06/02 21:30:39;;;;;;;1.87;0.90;;;24.00;41.20;;;;;;2345489;53;21436;-71
2022/06/02 21:33:33;;;;;;;2.75;1.10;;;24.00;41.40;;;;;;2339510;53;20960;-73